Heat Index SAI AWOS Graphical Display Untitled Document
Bertrand Chaffee Hospital Heliport (2NK6) Springville, New York, USA
200
03:35
29/06/2016
00
N/A
N/A
29.99
N/A
1420
59(F), 15(C)
54(F), 12(C)
59 F
87%
SCT060
10
N/A
0"
N/A
03:35 zulu Wind Calm, Altimeter 29.99
METAR K2NK6 290335Z AUTO 00000KT 10SM SCT060 15/12 A2999 A02 P0000
METAR:
FAA Disclaimer--Advisory Use ONLY, not for flight info--
INFO:
Wind Direction:
Wind Speed:
Wind Gust:
Wind Variable:
Altimeter:
Dens Alt:
Elev:
Temp:
Dwpt:
Wind Chill
Rel Humidity:
Ceiling:
Visibility:
Prsnt Wea:
PCPN:
Remarks:
How to read the WebPage